sensor_id;sensor_type;location;lat;lon;timestamp;P1;durP1;ratioP1;P2;durP2;ratioP2
3841;SDS011;1936;47.074;15.336;2023-05-10T00:01:37;6.10;;;4.45;;
3841;SDS011;1936;47.074;15.336;2023-05-10T00:03:40;6.47;;;4.95;;
3841;SDS011;1936;47.074;15.336;2023-05-10T00:05:44;5.40;;;4.90;;
3841;SDS011;1936;47.074;15.336;2023-05-10T00:07:49;4.82;;;4.32;;
3841;SDS011;1936;47.074;15.336;2023-05-10T00:09:52;6.90;;;5.00;;
3841;SDS011;1936;47.074;15.336;2023-05-10T00:11:55;7.32;;;5.30;;
3841;SDS011;1936;47.074;15.336;2023-05-10T00:13:59;8.70;;;4.95;;
3841;SDS011;1936;47.074;15.336;2023-05-10T00:16:03;5.65;;;4.95;;
3841;SDS011;1936;47.074;15.336;2023-05-10T00:18:06;5.65;;;4.78;;
3841;SDS011;1936;47.074;15.336;2023-05-10T00:20:10;4.20;;;3.80;;
3841;SDS011;1936;47.074;15.336;2023-05-10T00:22:14;7.65;;;4.20;;
3841;SDS011;1936;47.074;15.336;2023-05-10T00:24:19;4.32;;;3.92;;
3841;SDS011;1936;47.074;15.336;2023-05-10T00:26:22;5.70;;;5.07;;
3841;SDS011;1936;47.074;15.336;2023-05-10T00:28:27;6.30;;;5.70;;
3841;SDS011;1936;47.074;15.336;2023-05-10T00:30:30;5.80;;;4.63;;
3841;SDS011;1936;47.074;15.336;2023-05-10T00:32:33;5.13;;;4.70;;
3841;SDS011;1936;47.074;15.336;2023-05-10T00:34:37;5.90;;;4.47;;
3841;SDS011;1936;47.074;15.336;2023-05-10T00:36:40;5.28;;;4.85;;
3841;SDS011;1936;47.074;15.336;2023-05-10T00:38:44;4.50;;;4.10;;
3841;SDS011;1936;47.074;15.336;2023-05-10T00:40:49;5.93;;;5.10;;
3841;SDS011;1936;47.074;15.336;2023-05-10T00:42:52;4.68;;;4.20;;
3841;SDS011;1936;47.074;15.336;2023-05-10T00:44:55;6.45;;;4.50;;
3841;SDS011;1936;47.074;15.336;2023-05-10T00:46:59;4.50;;;3.67;;
3841;SDS011;1936;47.074;15.336;2023-05-10T00:49:02;5.80;;;4.85;;
3841;SDS011;1936;47.074;15.336;2023-05-10T00:51:06;7.43;;;4.72;;
3841;SDS011;1936;47.074;15.336;2023-05-10T00:53:09;6.40;;;5.07;;
3841;SDS011;1936;47.074;15.336;2023-05-10T00:55:13;7.15;;;5.40;;
3841;SDS011;1936;47.074;15.336;2023-05-10T00:57:18;5.95;;;4.35;;
3841;SDS011;1936;47.074;15.336;2023-05-10T00:59:21;7.10;;;5.47;;
3841;SDS011;1936;47.074;15.336;2023-05-10T01:01:24;5.43;;;4.68;;
3841;SDS011;1936;47.074;15.336;2023-05-10T01:03:29;6.20;;;5.20;;
3841;SDS011;1936;47.074;15.336;2023-05-10T01:05:33;6.00;;;4.75;;
3841;SDS011;1936;47.074;15.336;2023-05-10T01:07:36;6.82;;;5.03;;
3841;SDS011;1936;47.074;15.336;2023-05-10T01:09:40;5.57;;;5.07;;
3841;SDS011;1936;47.074;15.336;2023-05-10T01:11:43;11.10;;;5.10;;
3841;SDS011;1936;47.074;15.336;2023-05-10T01:13:50;5.80;;;5.15;;
3841;SDS011;1936;47.074;15.336;2023-05-10T01:15:56;6.50;;;5.45;;
3841;SDS011;1936;47.074;15.336;2023-05-10T01:18:01;5.25;;;4.28;;
3841;SDS011;1936;47.074;15.336;2023-05-10T01:20:06;10.65;;;5.15;;
3841;SDS011;1936;47.074;15.336;2023-05-10T01:22:15;5.65;;;5.00;;
3841;SDS011;1936;47.074;15.336;2023-05-10T01:24:40;8.13;;;5.50;;
3841;SDS011;1936;47.074;15.336;2023-05-10T01:27:20;5.30;;;4.80;;
3841;SDS011;1936;47.074;15.336;2023-05-10T01:32:20;6.57;;;4.57;;
3841;SDS011;1936;47.074;15.336;2023-05-10T01:34:32;4.90;;;4.40;;
3841;SDS011;1936;47.074;15.336;2023-05-10T01:36:39;6.53;;;5.43;;
3841;SDS011;1936;47.074;15.336;2023-05-10T01:38:49;6.82;;;5.65;;
3841;SDS011;1936;47.074;15.336;2023-05-10T01:40:59;6.88;;;4.90;;
3841;SDS011;1936;47.074;15.336;2023-05-10T01:43:11;5.95;;;5.22;;
3841;SDS011;1936;47.074;15.336;2023-05-10T01:45:30;6.07;;;4.75;;
3841;SDS011;1936;47.074;15.336;2023-05-10T01:47:41;7.32;;;5.80;;
3841;SDS011;1936;47.074;15.336;2023-05-10T01:49:47;6.55;;;5.18;;
3841;SDS011;1936;47.074;15.336;2023-05-10T01:51:53;6.53;;;5.75;;
3841;SDS011;1936;47.074;15.336;2023-05-10T01:53:59;5.32;;;4.70;;
3841;SDS011;1936;47.074;15.336;2023-05-10T01:56:04;4.90;;;4.50;;
3841;SDS011;1936;47.074;15.336;2023-05-10T01:58:11;7.93;;;5.15;;
3841;SDS011;1936;47.074;15.336;2023-05-10T02:00:18;8.43;;;5.40;;
3841;SDS011;1936;47.074;15.336;2023-05-10T02:02:22;8.27;;;5.10;;
3841;SDS011;1936;47.074;15.336;2023-05-10T02:04:29;5.85;;;5.20;;
3841;SDS011;1936;47.074;15.336;2023-05-10T02:06:34;8.02;;;5.05;;
3841;SDS011;1936;47.074;15.336;2023-05-10T02:08:38;9.32;;;5.60;;
3841;SDS011;1936;47.074;15.336;2023-05-10T02:10:43;7.10;;;5.03;;
3841;SDS011;1936;47.074;15.336;2023-05-10T02:12:49;6.15;;;5.55;;
3841;SDS011;1936;47.074;15.336;2023-05-10T02:14:53;8.13;;;5.93;;
3841;SDS011;1936;47.074;15.336;2023-05-10T02:16:57;6.15;;;5.55;;
3841;SDS011;1936;47.074;15.336;2023-05-10T02:19:02;5.45;;;4.72;;
3841;SDS011;1936;47.074;15.336;2023-05-10T02:21:07;11.80;;;5.38;;
3841;SDS011;1936;47.074;15.336;2023-05-10T02:23:11;5.95;;;5.05;;
3841;SDS011;1936;47.074;15.336;2023-05-10T02:25:16;5.78;;;5.20;;
3841;SDS011;1936;47.074;15.336;2023-05-10T02:27:21;6.03;;;5.13;;
3841;SDS011;1936;47.074;15.336;2023-05-10T02:29:27;6.25;;;5.45;;
3841;SDS011;1936;47.074;15.336;2023-05-10T02:31:31;7.63;;;5.10;;
3841;SDS011;1936;47.074;15.336;2023-05-10T02:33:36;5.88;;;5.28;;
3841;SDS011;1936;47.074;15.336;2023-05-10T02:35:41;9.40;;;5.35;;
3841;SDS011;1936;47.074;15.336;2023-05-10T02:37:46;6.22;;;5.40;;
3841;SDS011;1936;47.074;15.336;2023-05-10T02:39:50;8.55;;;6.90;;
3841;SDS011;1936;47.074;15.336;2023-05-10T02:41:57;5.75;;;5.25;;
3841;SDS011;1936;47.074;15.336;2023-05-10T02:44:01;8.90;;;5.75;;
3841;SDS011;1936;47.074;15.336;2023-05-10T02:46:05;8.45;;;6.63;;
3841;SDS011;1936;47.074;15.336;2023-05-10T02:48:09;8.10;;;5.63;;
3841;SDS011;1936;47.074;15.336;2023-05-10T02:50:13;8.10;;;5.55;;
3841;SDS011;1936;47.074;15.336;2023-05-10T02:52:19;7.15;;;5.20;;
3841;SDS011;1936;47.074;15.336;2023-05-10T02:54:31;6.45;;;5.00;;
3841;SDS011;1936;47.074;15.336;2023-05-10T02:56:40;6.55;;;5.50;;
3841;SDS011;1936;47.074;15.336;2023-05-10T02:58:49;8.50;;;6.07;;
3841;SDS011;1936;47.074;15.336;2023-05-10T03:00:53;5.90;;;5.30;;
3841;SDS011;1936;47.074;15.336;2023-05-10T03:02:56;7.35;;;6.65;;
3841;SDS011;1936;47.074;15.336;2023-05-10T03:04:59;6.80;;;6.10;;
3841;SDS011;1936;47.074;15.336;2023-05-10T03:07:04;6.38;;;5.22;;
3841;SDS011;1936;47.074;15.336;2023-05-10T03:09:07;8.65;;;6.07;;
3841;SDS011;1936;47.074;15.336;2023-05-10T03:11:22;7.88;;;5.30;;
3841;SDS011;1936;47.074;15.336;2023-05-10T03:13:36;5.07;;;4.15;;
3841;SDS011;1936;47.074;15.336;2023-05-10T03:15:47;11.15;;;5.40;;
3841;SDS011;1936;47.074;15.336;2023-05-10T03:17:56;8.38;;;5.80;;
3841;SDS011;1936;47.074;15.336;2023-05-10T03:20:06;5.97;;;5.30;;
3841;SDS011;1936;47.074;15.336;2023-05-10T03:22:13;8.68;;;5.30;;
3841;SDS011;1936;47.074;15.336;2023-05-10T03:24:23;8.85;;;5.65;;
3841;SDS011;1936;47.074;15.336;2023-05-10T03:26:32;9.55;;;7.50;;
3841;SDS011;1936;47.074;15.336;2023-05-10T03:28:36;6.50;;;5.70;;
3841;SDS011;1936;47.074;15.336;2023-05-10T03:30:42;6.97;;;6.30;;
3841;SDS011;1936;47.074;15.336;2023-05-10T03:32:46;6.50;;;5.78;;
3841;SDS011;1936;47.074;15.336;2023-05-10T03:34:50;7.10;;;6.40;;
3841;SDS011;1936;47.074;15.336;2023-05-10T03:36:53;8.80;;;6.20;;
3841;SDS011;1936;47.074;15.336;2023-05-10T03:38:56;7.88;;;6.28;;
3841;SDS011;1936;47.074;15.336;2023-05-10T03:40:59;14.75;;;6.20;;
3841;SDS011;1936;47.074;15.336;2023-05-10T03:43:04;5.85;;;5.25;;
3841;SDS011;1936;47.074;15.336;2023-05-10T03:45:08;9.30;;;6.50;;
3841;SDS011;1936;47.074;15.336;2023-05-10T03:47:12;7.85;;;5.75;;
3841;SDS011;1936;47.074;15.336;2023-05-10T03:49:15;11.23;;;6.70;;
3841;SDS011;1936;47.074;15.336;2023-05-10T03:51:18;11.15;;;6.45;;
3841;SDS011;1936;47.074;15.336;2023-05-10T03:53:22;7.43;;;5.22;;
3841;SDS011;1936;47.074;15.336;2023-05-10T03:55:25;7.63;;;6.65;;
3841;SDS011;1936;47.074;15.336;2023-05-10T03:57:29;9.23;;;6.20;;
3841;SDS011;1936;47.074;15.336;2023-05-10T03:59:34;5.50;;;4.97;;
3841;SDS011;1936;47.074;15.336;2023-05-10T04:01:37;6.57;;;5.97;;
3841;SDS011;1936;47.074;15.336;2023-05-10T04:03:41;6.60;;;5.65;;
3841;SDS011;1936;47.074;15.336;2023-05-10T04:05:44;6.20;;;5.38;;
3841;SDS011;1936;47.074;15.336;2023-05-10T04:07:48;8.80;;;6.43;;
3841;SDS011;1936;47.074;15.336;2023-05-10T04:09:52;6.80;;;5.97;;
3841;SDS011;1936;47.074;15.336;2023-05-10T04:11:56;7.05;;;5.60;;
3841;SDS011;1936;47.074;15.336;2023-05-10T04:13:59;8.52;;;6.57;;
3841;SDS011;1936;47.074;15.336;2023-05-10T04:16:04;7.13;;;5.78;;
3841;SDS011;1936;47.074;15.336;2023-05-10T04:18:08;7.07;;;6.38;;
3841;SDS011;1936;47.074;15.336;2023-05-10T04:20:12;7.55;;;5.80;;
3841;SDS011;1936;47.074;15.336;2023-05-10T04:22:16;8.73;;;6.57;;
3841;SDS011;1936;47.074;15.336;2023-05-10T04:24:19;7.47;;;6.32;;
3841;SDS011;1936;47.074;15.336;2023-05-10T04:26:22;7.38;;;6.53;;
3841;SDS011;1936;47.074;15.336;2023-05-10T04:28:26;6.38;;;5.78;;
3841;SDS011;1936;47.074;15.336;2023-05-10T04:30:30;7.47;;;5.47;;
3841;SDS011;1936;47.074;15.336;2023-05-10T04:32:35;8.25;;;6.05;;
3841;SDS011;1936;47.074;15.336;2023-05-10T04:34:38;10.63;;;6.72;;
3841;SDS011;1936;47.074;15.336;2023-05-10T04:36:42;10.32;;;7.07;;
3841;SDS011;1936;47.074;15.336;2023-05-10T04:38:45;7.88;;;6.97;;
3841;SDS011;1936;47.074;15.336;2023-05-10T04:40:48;8.65;;;6.97;;
3841;SDS011;1936;47.074;15.336;2023-05-10T04:42:52;7.72;;;6.93;;
3841;SDS011;1936;47.074;15.336;2023-05-10T04:44:55;8.32;;;7.43;;
3841;SDS011;1936;47.074;15.336;2023-05-10T04:46:59;7.60;;;6.35;;
3841;SDS011;1936;47.074;15.336;2023-05-10T04:49:05;8.02;;;7.28;;
3841;SDS011;1936;47.074;15.336;2023-05-10T04:51:08;9.15;;;7.80;;
3841;SDS011;1936;47.074;15.336;2023-05-10T04:53:12;10.63;;;6.65;;
3841;SDS011;1936;47.074;15.336;2023-05-10T04:55:16;11.85;;;6.63;;
3841;SDS011;1936;47.074;15.336;2023-05-10T04:57:20;8.00;;;6.82;;
3841;SDS011;1936;47.074;15.336;2023-05-10T04:59:23;9.00;;;8.10;;
3841;SDS011;1936;47.074;15.336;2023-05-10T05:01:26;8.60;;;7.05;;
3841;SDS011;1936;47.074;15.336;2023-05-10T05:03:30;9.13;;;7.77;;
3841;SDS011;1936;47.074;15.336;2023-05-10T05:05:35;10.23;;;7.63;;
3841;SDS011;1936;47.074;15.336;2023-05-10T05:07:39;8.73;;;7.88;;
3841;SDS011;1936;47.074;15.336;2023-05-10T05:09:42;11.45;;;7.55;;
3841;SDS011;1936;47.074;15.336;2023-05-10T05:11:46;7.40;;;6.70;;
3841;SDS011;1936;47.074;15.336;2023-05-10T05:13:49;7.87;;;7.07;;
3841;SDS011;1936;47.074;15.336;2023-05-10T05:15:53;7.33;;;6.67;;
3841;SDS011;1936;47.074;15.336;2023-05-10T05:17:56;8.93;;;6.47;;
3841;SDS011;1936;47.074;15.336;2023-05-10T05:20:00;6.23;;;5.63;;
3841;SDS011;1936;47.074;15.336;2023-05-10T05:22:07;8.33;;;6.47;;
3841;SDS011;1936;47.074;15.336;2023-05-10T05:24:12;6.07;;;5.07;;
3841;SDS011;1936;47.074;15.336;2023-05-10T05:26:16;10.90;;;6.43;;
3841;SDS011;1936;47.074;15.336;2023-05-10T05:28:19;6.70;;;5.63;;
3841;SDS011;1936;47.074;15.336;2023-05-10T05:30:23;5.13;;;4.63;;
3841;SDS011;1936;47.074;15.336;2023-05-10T05:32:26;5.90;;;5.30;;
3841;SDS011;1936;47.074;15.336;2023-05-10T05:34:30;5.33;;;4.83;;
3841;SDS011;1936;47.074;15.336;2023-05-10T05:36:35;5.53;;;5.00;;
3841;SDS011;1936;47.074;15.336;2023-05-10T05:38:41;7.23;;;5.47;;
3841;SDS011;1936;47.074;15.336;2023-05-10T05:40:45;9.83;;;4.30;;
3841;SDS011;1936;47.074;15.336;2023-05-10T05:42:49;6.50;;;5.90;;
3841;SDS011;1936;47.074;15.336;2023-05-10T05:44:52;7.40;;;5.90;;
3841;SDS011;1936;47.074;15.336;2023-05-10T05:46:56;5.93;;;4.83;;
3841;SDS011;1936;47.074;15.336;2023-05-10T05:48:59;6.63;;;4.80;;
3841;SDS011;1936;47.074;15.336;2023-05-10T05:51:02;10.67;;;5.80;;
3841;SDS011;1936;47.074;15.336;2023-05-10T05:53:08;11.43;;;5.20;;
3841;SDS011;1936;47.074;15.336;2023-05-10T05:55:13;6.63;;;5.30;;
3841;SDS011;1936;47.074;15.336;2023-05-10T05:57:16;8.20;;;4.97;;
3841;SDS011;1936;47.074;15.336;2023-05-10T05:59:20;5.50;;;5.00;;
3841;SDS011;1936;47.074;15.336;2023-05-10T06:01:24;5.80;;;5.30;;
3841;SDS011;1936;47.074;15.336;2023-05-10T06:03:27;6.70;;;5.97;;
3841;SDS011;1936;47.074;15.336;2023-05-10T06:05:31;5.70;;;4.97;;
3841;SDS011;1936;47.074;15.336;2023-05-10T06:07:34;7.67;;;6.23;;
3841;SDS011;1936;47.074;15.336;2023-05-10T06:09:38;6.10;;;4.53;;
3841;SDS011;1936;47.074;15.336;2023-05-10T06:11:42;6.33;;;5.83;;
3841;SDS011;1936;47.074;15.336;2023-05-10T06:13:46;5.87;;;5.37;;
3841;SDS011;1936;47.074;15.336;2023-05-10T06:15:49;6.93;;;5.20;;
3841;SDS011;1936;47.074;15.336;2023-05-10T06:17:53;4.70;;;4.30;;
3841;SDS011;1936;47.074;15.336;2023-05-10T06:19:56;6.30;;;4.70;;
3841;SDS011;1936;47.074;15.336;2023-05-10T06:22:00;6.00;;;5.50;;
3841;SDS011;1936;47.074;15.336;2023-05-10T06:24:03;6.13;;;5.53;;
3841;SDS011;1936;47.074;15.336;2023-05-10T06:26:08;6.80;;;6.07;;
3841;SDS011;1936;47.074;15.336;2023-05-10T06:28:13;10.13;;;5.37;;
3841;SDS011;1936;47.074;15.336;2023-05-10T06:30:16;7.63;;;5.33;;
3841;SDS011;1936;47.074;15.336;2023-05-10T06:32:20;5.83;;;5.27;;
3841;SDS011;1936;47.074;15.336;2023-05-10T06:34:23;5.40;;;4.67;;
3841;SDS011;1936;47.074;15.336;2023-05-10T06:36:27;6.00;;;5.33;;
3841;SDS011;1936;47.074;15.336;2023-05-10T06:38:30;6.67;;;5.13;;
3841;SDS011;1936;47.074;15.336;2023-05-10T06:40:34;4.93;;;4.43;;
3841;SDS011;1936;47.074;15.336;2023-05-10T06:42:37;5.80;;;5.17;;
3841;SDS011;1936;47.074;15.336;2023-05-10T06:44:42;6.70;;;4.80;;
3841;SDS011;1936;47.074;15.336;2023-05-10T06:46:45;6.73;;;5.80;;
3841;SDS011;1936;47.074;15.336;2023-05-10T06:48:49;5.00;;;4.60;;
3841;SDS011;1936;47.074;15.336;2023-05-10T06:50:52;7.00;;;5.33;;
3841;SDS011;1936;47.074;15.336;2023-05-10T06:52:55;5.10;;;4.60;;
3841;SDS011;1936;47.074;15.336;2023-05-10T06:54:59;5.73;;;5.10;;
3841;SDS011;1936;47.074;15.336;2023-05-10T06:57:02;6.70;;;6.03;;
3841;SDS011;1936;47.074;15.336;2023-05-10T06:59:20;5.83;;;5.23;;
3841;SDS011;1936;47.074;15.336;2023-05-10T07:01:25;6.40;;;5.70;;
3841;SDS011;1936;47.074;15.336;2023-05-10T07:03:28;7.33;;;5.50;;
3841;SDS011;1936;47.074;15.336;2023-05-10T07:05:32;15.03;;;6.03;;
3841;SDS011;1936;47.074;15.336;2023-05-10T07:07:35;5.97;;;5.47;;
3841;SDS011;1936;47.074;15.336;2023-05-10T07:09:39;5.93;;;5.43;;
3841;SDS011;1936;47.074;15.336;2023-05-10T07:11:42;8.03;;;5.70;;
3841;SDS011;1936;47.074;15.336;2023-05-10T07:13:46;7.53;;;5.97;;
3841;SDS011;1936;47.074;15.336;2023-05-10T07:15:49;5.80;;;5.20;;
3841;SDS011;1936;47.074;15.336;2023-05-10T07:17:54;6.47;;;5.37;;
3841;SDS011;1936;47.074;15.336;2023-05-10T07:19:58;8.77;;;5.97;;
3841;SDS011;1936;47.074;15.336;2023-05-10T07:22:01;8.10;;;4.57;;
3841;SDS011;1936;47.074;15.336;2023-05-10T07:24:04;6.30;;;4.93;;
3841;SDS011;1936;47.074;15.336;2023-05-10T07:26:08;6.30;;;5.23;;
3841;SDS011;1936;47.074;15.336;2023-05-10T07:28:11;6.00;;;5.37;;
3841;SDS011;1936;47.074;15.336;2023-05-10T07:30:15;6.83;;;5.53;;
3841;SDS011;1936;47.074;15.336;2023-05-10T07:32:19;5.33;;;4.83;;
3841;SDS011;1936;47.074;15.336;2023-05-10T07:34:24;7.97;;;4.77;;
3841;SDS011;1936;47.074;15.336;2023-05-10T07:36:27;5.90;;;5.40;;
3841;SDS011;1936;47.074;15.336;2023-05-10T07:38:30;7.53;;;6.10;;
3841;SDS011;1936;47.074;15.336;2023-05-10T07:40:34;6.10;;;5.50;;
3841;SDS011;1936;47.074;15.336;2023-05-10T07:42:37;7.37;;;5.97;;
3841;SDS011;1936;47.074;15.336;2023-05-10T07:44:41;5.13;;;4.63;;
3841;SDS011;1936;47.074;15.336;2023-05-10T07:46:45;6.97;;;5.40;;
3841;SDS011;1936;47.074;15.336;2023-05-10T07:48:48;7.53;;;5.30;;
3841;SDS011;1936;47.074;15.336;2023-05-10T07:50:53;6.13;;;5.27;;
3841;SDS011;1936;47.074;15.336;2023-05-10T07:52:57;8.07;;;5.17;;
3841;SDS011;1936;47.074;15.336;2023-05-10T07:55:01;8.30;;;4.97;;
3841;SDS011;1936;47.074;15.336;2023-05-10T07:57:04;6.00;;;4.60;;
3841;SDS011;1936;47.074;15.336;2023-05-10T07:59:07;7.20;;;5.60;;
3841;SDS011;1936;47.074;15.336;2023-05-10T08:01:13;5.87;;;4.97;;
3841;SDS011;1936;47.074;15.336;2023-05-10T08:03:16;9.47;;;5.00;;
3841;SDS011;1936;47.074;15.336;2023-05-10T08:05:20;5.63;;;5.10;;
3841;SDS011;1936;47.074;15.336;2023-05-10T08:07:25;8.03;;;5.47;;
3841;SDS011;1936;47.074;15.336;2023-05-10T08:09:28;8.57;;;4.93;;
3841;SDS011;1936;47.074;15.336;2023-05-10T08:11:32;4.93;;;4.50;;
3841;SDS011;1936;47.074;15.336;2023-05-10T08:13:35;7.10;;;4.80;;
3841;SDS011;1936;47.074;15.336;2023-05-10T08:15:39;4.60;;;4.20;;
3841;SDS011;1936;47.074;15.336;2023-05-10T08:17:42;6.27;;;4.77;;
3841;SDS011;1936;47.074;15.336;2023-05-10T08:19:45;5.80;;;5.30;;
3841;SDS011;1936;47.074;15.336;2023-05-10T08:21:49;4.80;;;4.40;;
3841;SDS011;1936;47.074;15.336;2023-05-10T08:23:53;5.43;;;4.90;;
3841;SDS011;1936;47.074;15.336;2023-05-10T08:25:57;6.30;;;4.60;;
3841;SDS011;1936;47.074;15.336;2023-05-10T08:28:00;8.67;;;6.07;;
3841;SDS011;1936;47.074;15.336;2023-05-10T08:30:04;6.30;;;5.03;;
3841;SDS011;1936;47.074;15.336;2023-05-10T08:32:09;5.03;;;4.30;;
3841;SDS011;1936;47.074;15.336;2023-05-10T08:34:12;5.30;;;3.97;;
3841;SDS011;1936;47.074;15.336;2023-05-10T08:36:16;7.97;;;5.20;;
3841;SDS011;1936;47.074;15.336;2023-05-10T08:38:22;8.40;;;4.40;;
3841;SDS011;1936;47.074;15.336;2023-05-10T08:40:27;5.73;;;4.47;;
3841;SDS011;1936;47.074;15.336;2023-05-10T08:42:31;4.60;;;3.93;;
3841;SDS011;1936;47.074;15.336;2023-05-10T08:44:39;4.00;;;3.60;;
3841;SDS011;1936;47.074;15.336;2023-05-10T08:46:43;3.87;;;3.30;;
3841;SDS011;1936;47.074;15.336;2023-05-10T08:48:50;5.93;;;5.27;;
3841;SDS011;1936;47.074;15.336;2023-05-10T08:50:53;8.67;;;4.03;;
3841;SDS011;1936;47.074;15.336;2023-05-10T08:52:59;5.03;;;4.50;;
3841;SDS011;1936;47.074;15.336;2023-05-10T08:55:06;6.90;;;3.60;;
3841;SDS011;1936;47.074;15.336;2023-05-10T08:57:12;5.50;;;4.53;;
3841;SDS011;1936;47.074;15.336;2023-05-10T08:59:15;6.90;;;5.40;;
3841;SDS011;1936;47.074;15.336;2023-05-10T09:01:18;6.93;;;5.20;;
3841;SDS011;1936;47.074;15.336;2023-05-10T09:03:22;9.60;;;5.10;;
3841;SDS011;1936;47.074;15.336;2023-05-10T09:05:26;6.87;;;4.47;;
3841;SDS011;1936;47.074;15.336;2023-05-10T09:07:29;9.10;;;4.90;;
3841;SDS011;1936;47.074;15.336;2023-05-10T09:09:36;5.67;;;4.77;;
3841;SDS011;1936;47.074;15.336;2023-05-10T09:11:39;5.77;;;4.37;;
3841;SDS011;1936;47.074;15.336;2023-05-10T09:13:44;5.77;;;4.50;;
3841;SDS011;1936;47.074;15.336;2023-05-10T09:15:50;8.03;;;4.57;;
3841;SDS011;1936;47.074;15.336;2023-05-10T09:17:54;5.03;;;4.53;;
3841;SDS011;1936;47.074;15.336;2023-05-10T09:19:59;5.27;;;4.43;;
3841;SDS011;1936;47.074;15.336;2023-05-10T09:22:02;4.50;;;3.90;;
3841;SDS011;1936;47.074;15.336;2023-05-10T09:24:06;4.00;;;3.60;;
3841;SDS011;1936;47.074;15.336;2023-05-10T09:26:10;5.13;;;4.43;;
3841;SDS011;1936;47.074;15.336;2023-05-10T09:28:14;6.97;;;4.77;;
3841;SDS011;1936;47.074;15.336;2023-05-10T09:30:23;4.13;;;3.73;;
3841;SDS011;1936;47.074;15.336;2023-05-10T09:32:37;4.43;;;3.60;;
3841;SDS011;1936;47.074;15.336;2023-05-10T09:34:41;5.23;;;4.23;;
3841;SDS011;1936;47.074;15.336;2023-05-10T09:36:51;6.33;;;3.70;;
3841;SDS011;1936;47.074;15.336;2023-05-10T09:38:56;3.67;;;3.30;;
3841;SDS011;1936;47.074;15.336;2023-05-10T09:41:00;6.70;;;3.30;;
3841;SDS011;1936;47.074;15.336;2023-05-10T09:43:06;4.47;;;4.07;;
3841;SDS011;1936;47.074;15.336;2023-05-10T09:45:10;5.03;;;3.33;;
3841;SDS011;1936;47.074;15.336;2023-05-10T09:47:17;4.10;;;3.70;;
3841;SDS011;1936;47.074;15.336;2023-05-10T09:49:21;3.93;;;3.50;;
3841;SDS011;1936;47.074;15.336;2023-05-10T09:51:24;4.00;;;3.20;;
3841;SDS011;1936;47.074;15.336;2023-05-10T09:53:29;2.63;;;2.27;;
3841;SDS011;1936;47.074;15.336;2023-05-10T09:55:39;3.97;;;2.73;;
3841;SDS011;1936;47.074;15.336;2023-05-10T09:57:45;2.70;;;2.50;;
3841;SDS011;1936;47.074;15.336;2023-05-10T09:59:49;2.77;;;2.47;;
3841;SDS011;1936;47.074;15.336;2023-05-10T10:01:55;3.40;;;2.93;;
3841;SDS011;1936;47.074;15.336;2023-05-10T10:04:02;5.57;;;2.97;;
3841;SDS011;1936;47.074;15.336;2023-05-10T10:06:07;4.87;;;3.17;;
3841;SDS011;1936;47.074;15.336;2023-05-10T10:08:23;4.87;;;3.67;;
3841;SDS011;1936;47.074;15.336;2023-05-10T10:10:27;5.27;;;3.17;;
3841;SDS011;1936;47.074;15.336;2023-05-10T10:12:30;5.73;;;3.30;;
3841;SDS011;1936;47.074;15.336;2023-05-10T10:14:34;7.13;;;3.73;;
3841;SDS011;1936;47.074;15.336;2023-05-10T10:16:37;2.57;;;2.37;;
3841;SDS011;1936;47.074;15.336;2023-05-10T10:19:01;4.20;;;2.20;;
3841;SDS011;1936;47.074;15.336;2023-05-10T10:21:05;2.53;;;1.93;;
3841;SDS011;1936;47.074;15.336;2023-05-10T10:23:09;2.10;;;1.67;;
3841;SDS011;1936;47.074;15.336;2023-05-10T10:25:14;3.50;;;1.73;;
3841;SDS011;1936;47.074;15.336;2023-05-10T10:27:21;3.50;;;2.43;;
3841;SDS011;1936;47.074;15.336;2023-05-10T10:29:30;3.40;;;3.10;;
3841;SDS011;1936;47.074;15.336;2023-05-10T10:31:39;4.70;;;2.80;;
3841;SDS011;1936;47.074;15.336;2023-05-10T10:33:51;4.73;;;2.53;;
3841;SDS011;1936;47.074;15.336;2023-05-10T10:36:03;2.67;;;2.40;;
3841;SDS011;1936;47.074;15.336;2023-05-10T10:38:07;2.43;;;2.20;;
3841;SDS011;1936;47.074;15.336;2023-05-10T10:42:43;3.07;;;2.77;;
3841;SDS011;1936;47.074;15.336;2023-05-10T10:44:47;5.43;;;4.20;;
3841;SDS011;1936;47.074;15.336;2023-05-10T10:49:31;7.27;;;3.77;;
3841;SDS011;1936;47.074;15.336;2023-05-10T10:51:38;3.67;;;3.37;;
3841;SDS011;1936;47.074;15.336;2023-05-10T10:53:42;4.73;;;4.23;;
3841;SDS011;1936;47.074;15.336;2023-05-10T10:55:46;5.00;;;4.50;;
3841;SDS011;1936;47.074;15.336;2023-05-10T10:57:50;3.30;;;2.53;;
3841;SDS011;1936;47.074;15.336;2023-05-10T11:02:34;3.53;;;3.23;;
3841;SDS011;1936;47.074;15.336;2023-05-10T11:04:47;4.17;;;3.77;;
3841;SDS011;1936;47.074;15.336;2023-05-10T11:07:06;3.57;;;3.27;;
3841;SDS011;1936;47.074;15.336;2023-05-10T11:09:19;5.00;;;4.00;;
3841;SDS011;1936;47.074;15.336;2023-05-10T11:11:26;4.93;;;4.47;;
3841;SDS011;1936;47.074;15.336;2023-05-10T11:13:31;10.20;;;4.50;;
3841;SDS011;1936;47.074;15.336;2023-05-10T11:15:36;4.23;;;3.40;;
3841;SDS011;1936;47.074;15.336;2023-05-10T11:17:42;5.03;;;3.10;;
3841;SDS011;1936;47.074;15.336;2023-05-10T11:20:02;9.13;;;4.40;;
3841;SDS011;1936;47.074;15.336;2023-05-10T11:22:14;3.90;;;3.60;;
3841;SDS011;1936;47.074;15.336;2023-05-10T11:24:20;4.40;;;4.00;;
3841;SDS011;1936;47.074;15.336;2023-05-10T11:26:30;3.77;;;3.43;;
3841;SDS011;1936;47.074;15.336;2023-05-10T11:28:41;4.67;;;4.27;;
3841;SDS011;1936;47.074;15.336;2023-05-10T11:30:50;8.23;;;4.60;;
3841;SDS011;1936;47.074;15.336;2023-05-10T11:32:54;5.23;;;4.33;;
3841;SDS011;1936;47.074;15.336;2023-05-10T11:34:57;4.80;;;3.93;;
3841;SDS011;1936;47.074;15.336;2023-05-10T11:37:01;6.10;;;4.80;;
3841;SDS011;1936;47.074;15.336;2023-05-10T11:39:06;6.27;;;3.90;;
3841;SDS011;1936;47.074;15.336;2023-05-10T11:41:09;6.00;;;3.90;;
3841;SDS011;1936;47.074;15.336;2023-05-10T11:43:13;4.07;;;3.67;;
3841;SDS011;1936;47.074;15.336;2023-05-10T11:45:17;4.33;;;3.93;;
3841;SDS011;1936;47.074;15.336;2023-05-10T11:47:20;4.93;;;4.50;;
3841;SDS011;1936;47.074;15.336;2023-05-10T11:49:24;4.70;;;4.30;;
3841;SDS011;1936;47.074;15.336;2023-05-10T11:51:29;4.53;;;3.90;;
3841;SDS011;1936;47.074;15.336;2023-05-10T11:53:35;7.87;;;4.80;;
3841;SDS011;1936;47.074;15.336;2023-05-10T11:55:40;6.63;;;3.53;;
3841;SDS011;1936;47.074;15.336;2023-05-10T11:57:44;5.73;;;3.97;;
3841;SDS011;1936;47.074;15.336;2023-05-10T11:59:47;4.20;;;3.80;;
3841;SDS011;1936;47.074;15.336;2023-05-10T12:01:56;5.10;;;4.63;;
3841;SDS011;1936;47.074;15.336;2023-05-10T12:03:59;5.23;;;4.30;;
3841;SDS011;1936;47.074;15.336;2023-05-10T12:06:04;4.50;;;4.00;;
3841;SDS011;1936;47.074;15.336;2023-05-10T12:08:12;4.57;;;3.63;;
3841;SDS011;1936;47.074;15.336;2023-05-10T12:10:17;3.90;;;3.60;;
3841;SDS011;1936;47.074;15.336;2023-05-10T12:12:36;4.53;;;3.93;;
3841;SDS011;1936;47.074;15.336;2023-05-10T12:14:40;5.50;;;4.90;;
3841;SDS011;1936;47.074;15.336;2023-05-10T12:16:43;6.27;;;4.80;;
3841;SDS011;1936;47.074;15.336;2023-05-10T12:18:47;5.50;;;4.47;;
3841;SDS011;1936;47.074;15.336;2023-05-10T12:20:52;5.00;;;4.50;;
3841;SDS011;1936;47.074;15.336;2023-05-10T12:22:57;4.30;;;3.90;;
3841;SDS011;1936;47.074;15.336;2023-05-10T12:25:03;8.90;;;4.33;;
3841;SDS011;1936;47.074;15.336;2023-05-10T12:27:07;6.43;;;5.47;;
3841;SDS011;1936;47.074;15.336;2023-05-10T12:29:13;6.23;;;4.10;;
3841;SDS011;1936;47.074;15.336;2023-05-10T12:31:18;5.70;;;4.70;;
3841;SDS011;1936;47.074;15.336;2023-05-10T12:33:21;11.90;;;5.97;;
3841;SDS011;1936;47.074;15.336;2023-05-10T12:35:25;5.27;;;3.93;;
3841;SDS011;1936;47.074;15.336;2023-05-10T12:37:28;6.07;;;4.97;;
3841;SDS011;1936;47.074;15.336;2023-05-10T12:39:38;7.80;;;5.47;;
3841;SDS011;1936;47.074;15.336;2023-05-10T12:41:43;6.90;;;6.20;;
3841;SDS011;1936;47.074;15.336;2023-05-10T12:43:46;5.00;;;4.47;;
3841;SDS011;1936;47.074;15.336;2023-05-10T12:45:51;9.80;;;5.33;;
3841;SDS011;1936;47.074;15.336;2023-05-10T12:47:54;9.53;;;4.20;;
3841;SDS011;1936;47.074;15.336;2023-05-10T12:49:58;5.07;;;4.07;;
3841;SDS011;1936;47.074;15.336;2023-05-10T12:52:02;5.40;;;3.93;;
3841;SDS011;1936;47.074;15.336;2023-05-10T12:54:06;10.30;;;5.30;;
3841;SDS011;1936;47.074;15.336;2023-05-10T12:56:09;5.60;;;4.37;;